createdAt,value
2022-09-06T00:00:05.626Z,24.36
2022-09-06T00:01:05.605Z,24.37
2022-09-06T00:02:05.592Z,24.36
2022-09-06T00:03:05.652Z,24.37
2022-09-06T00:04:05.622Z,24.45
2022-09-06T00:05:05.562Z,24.43
2022-09-06T00:06:05.546Z,24.40
2022-09-06T00:07:05.529Z,24.29
2022-09-06T00:08:05.523Z,24.43
2022-09-06T00:09:05.503Z,24.47
2022-09-06T00:10:05.494Z,24.43
2022-09-06T00:11:05.485Z,24.43
2022-09-06T00:12:05.467Z,24.34
2022-09-06T00:13:05.458Z,24.29
2022-09-06T00:14:05.442Z,24.48
2022-09-06T00:15:05.430Z,24.33
2022-09-06T00:16:05.447Z,24.44
2022-09-06T00:17:05.403Z,24.41
2022-09-06T00:18:05.389Z,24.37
2022-09-06T00:19:05.383Z,24.38
2022-09-06T00:20:05.364Z,24.31
2022-09-06T00:21:05.354Z,24.29
2022-09-06T00:22:05.337Z,24.34
2022-09-06T00:23:05.330Z,24.29
2022-09-06T00:24:05.313Z,24.31
2022-09-06T00:25:05.300Z,24.18
2022-09-06T00:26:05.285Z,24.15
2022-09-06T00:27:05.277Z,24.16
2022-09-06T00:28:05.264Z,24.22
2022-09-06T00:29:05.253Z,24.19
2022-09-06T00:30:05.236Z,24.16
2022-09-06T00:31:05.259Z,24.16
2022-09-06T00:32:05.212Z,24.10
2022-09-06T00:33:05.201Z,24.10
2022-09-06T00:34:05.195Z,24.08
2022-09-06T00:35:05.174Z,24.11
2022-09-06T00:36:05.167Z,24.07
2022-09-06T00:37:05.154Z,24.07
2022-09-06T00:38:05.140Z,24.08
2022-09-06T00:39:05.125Z,24.07
2022-09-06T00:40:05.186Z,24.07
2022-09-06T00:41:05.100Z,24.04
2022-09-06T00:42:05.084Z,23.98
2022-09-06T00:43:05.070Z,24.01
2022-09-06T00:44:05.058Z,24.03
2022-09-06T00:45:05.045Z,23.96
2022-09-06T00:46:05.064Z,24.06
2022-09-06T00:47:05.026Z,24.03
2022-09-06T00:48:05.007Z,23.98
2022-09-06T00:49:04.998Z,23.98
2022-09-06T00:50:04.980Z,24.04
2022-09-06T00:51:04.970Z,24.00
2022-09-06T00:52:04.955Z,23.92
2022-09-06T00:53:04.944Z,23.91
2022-09-06T00:54:04.930Z,23.91
2022-09-06T00:55:04.919Z,23.97
2022-09-06T00:56:04.902Z,23.97
2022-09-06T00:57:04.894Z,23.96
2022-09-06T00:58:04.874Z,23.92
2022-09-06T00:59:04.863Z,23.97
2022-09-06T01:00:04.850Z,24.00
2022-09-06T01:01:04.899Z,24.03
2022-09-06T01:02:04.926Z,24.06
2022-09-06T01:03:04.812Z,24.06
2022-09-06T01:04:04.799Z,23.97
2022-09-06T01:05:04.793Z,23.98
2022-09-06T01:06:04.772Z,23.92
2022-09-06T01:07:04.766Z,23.97
2022-09-06T01:08:04.746Z,23.92
2022-09-06T01:09:04.735Z,23.85
2022-09-06T01:10:04.729Z,23.86
2022-09-06T01:11:04.706Z,23.85
2022-09-06T01:12:04.693Z,23.91
2022-09-06T01:13:04.688Z,23.86
2022-09-06T01:14:04.669Z,23.85
2022-09-06T01:15:04.658Z,23.88
2022-09-06T01:16:04.663Z,23.89
2022-09-06T01:17:04.632Z,23.91
2022-09-06T01:18:04.616Z,23.89
2022-09-06T01:19:04.607Z,23.88
2022-09-06T01:20:04.590Z,23.88
2022-09-06T01:21:04.580Z,23.82
2022-09-06T01:22:04.568Z,23.82
2022-09-06T01:23:04.553Z,23.81
2022-09-06T01:24:04.540Z,23.85
2022-09-06T01:25:04.529Z,23.88
2022-09-06T01:26:04.513Z,23.82
2022-09-06T01:27:04.504Z,23.85
2022-09-06T01:28:04.490Z,23.81
2022-09-06T01:29:04.478Z,23.79
2022-09-06T01:30:04.462Z,23.74
2022-09-06T01:31:04.486Z,23.82
2022-09-06T01:32:04.440Z,23.82
2022-09-06T01:33:04.425Z,23.84
2022-09-06T01:34:04.410Z,23.85
2022-09-06T01:35:04.402Z,23.89
2022-09-06T01:36:04.392Z,23.86
2022-09-06T01:37:10.453Z,23.85
2022-09-06T01:38:04.359Z,23.88
2022-09-06T01:39:04.344Z,23.88
2022-09-06T01:40:04.413Z,23.85
2022-09-06T01:41:04.325Z,23.91
2022-09-06T01:42:04.309Z,23.96
2022-09-06T01:43:07.889Z,23.96
2022-09-06T01:44:04.281Z,23.94
2022-09-06T01:45:04.267Z,23.96
2022-09-06T01:46:04.321Z,24.03
2022-09-06T01:47:04.247Z,23.96
2022-09-06T01:48:04.240Z,23.89
2022-09-06T01:49:04.216Z,23.84
2022-09-06T01:50:04.212Z,23.79
2022-09-06T01:51:04.191Z,23.71
2022-09-06T01:52:04.180Z,23.71
2022-09-06T01:53:04.166Z,23.71
2022-09-06T01:54:04.158Z,23.70
2022-09-06T01:55:04.139Z,23.76
2022-09-06T01:56:04.125Z,23.64
2022-09-06T01:57:04.113Z,23.63
2022-09-06T01:58:04.104Z,23.54
2022-09-06T01:59:04.085Z,23.71
2022-09-06T02:00:04.076Z,23.64
2022-09-06T02:01:04.155Z,23.63
2022-09-06T02:02:04.144Z,23.66
2022-09-06T02:03:04.036Z,23.67
2022-09-06T02:04:04.032Z,23.67
2022-09-06T02:05:04.011Z,23.70
2022-09-06T02:06:04.013Z,23.71
2022-09-06T02:07:03.980Z,23.74
2022-09-06T02:08:03.969Z,23.71
2022-09-06T02:09:03.959Z,23.71
2022-09-06T02:10:03.945Z,23.78
2022-09-06T02:11:03.946Z,23.71
2022-09-06T02:12:03.923Z,23.76
2022-09-06T02:13:03.905Z,23.74
2022-09-06T02:14:03.893Z,23.78
2022-09-06T02:15:03.881Z,23.76
2022-09-06T02:16:03.870Z,23.82
2022-09-06T02:17:03.961Z,23.81
2022-09-06T02:18:03.843Z,23.74
2022-09-06T02:19:03.825Z,23.79
2022-09-06T02:20:03.815Z,23.84
2022-09-06T02:21:03.806Z,23.79
2022-09-06T02:22:03.790Z,23.92
2022-09-06T02:23:03.775Z,23.86
2022-09-06T02:24:03.762Z,23.86
2022-09-06T02:25:03.751Z,23.96
2022-09-06T02:26:03.737Z,23.97
2022-09-06T02:27:03.727Z,23.82
2022-09-06T02:28:03.717Z,23.88
2022-09-06T02:29:03.699Z,23.88
2022-09-06T02:30:03.689Z,23.79
2022-09-06T02:31:03.776Z,23.73
2022-09-06T02:32:03.666Z,23.45
2022-09-06T02:33:03.655Z,23.37
2022-09-06T02:34:03.635Z,23.29
2022-09-06T02:35:03.618Z,23.26
2022-09-06T02:36:03.610Z,23.23
2022-09-06T02:37:03.595Z,23.22
2022-09-06T02:38:03.589Z,23.22
2022-09-06T02:39:03.570Z,23.23
2022-09-06T02:40:03.610Z,23.23
2022-09-06T02:41:03.544Z,23.22
2022-09-06T02:42:03.533Z,23.23
2022-09-06T02:43:03.518Z,23.15
2022-09-06T02:44:03.510Z,23.07
2022-09-06T02:45:03.492Z,22.99
2022-09-06T02:46:03.607Z,22.95
2022-09-06T02:47:03.492Z,22.98
2022-09-06T02:48:03.456Z,22.95
2022-09-06T02:49:03.437Z,22.96
2022-09-06T02:50:03.428Z,22.99
2022-09-06T02:51:03.412Z,22.93
2022-09-06T02:52:03.400Z,22.95
2022-09-06T02:53:03.387Z,23.07
2022-09-06T02:54:03.380Z,23.07
2022-09-06T02:55:03.362Z,23.06
2022-09-06T02:56:03.349Z,22.96
2022-09-06T02:57:03.332Z,23.03
2022-09-06T02:58:03.316Z,23.04
2022-09-06T02:59:03.305Z,22.98
2022-09-06T03:00:03.296Z,22.93
2022-09-06T03:01:03.378Z,22.98
2022-09-06T03:02:03.324Z,22.92
2022-09-06T03:03:03.250Z,22.92
2022-09-06T03:04:03.241Z,22.93
2022-09-06T03:05:03.225Z,22.96
2022-09-06T03:06:03.213Z,22.91
2022-09-06T03:07:03.199Z,22.83
2022-09-06T03:08:03.184Z,22.88
2022-09-06T03:09:03.173Z,22.88
2022-09-06T03:10:03.158Z,22.89
2022-09-06T03:11:03.143Z,22.85
2022-09-06T03:12:03.132Z,22.81
2022-09-06T03:13:03.121Z,22.85
2022-09-06T03:14:03.105Z,22.92
2022-09-06T03:15:03.093Z,22.98
2022-09-06T03:16:03.075Z,22.86
2022-09-06T03:17:03.119Z,22.88
2022-09-06T03:18:03.049Z,22.96
2022-09-06T03:19:03.037Z,22.98
2022-09-06T03:20:03.025Z,22.88
2022-09-06T03:21:03.011Z,22.98
2022-09-06T03:22:02.997Z,22.93
2022-09-06T03:23:02.986Z,22.93
2022-09-06T03:24:02.973Z,22.96
2022-09-06T03:25:02.961Z,23.03
2022-09-06T03:26:02.942Z,23.07
2022-09-06T03:27:02.930Z,23.07
2022-09-06T03:28:02.921Z,23.13
2022-09-06T03:29:02.901Z,23.11
2022-09-06T03:30:02.894Z,23.26
2022-09-06T03:31:02.923Z,23.18
2022-09-06T03:32:02.866Z,23.18
2022-09-06T03:33:03.156Z,23.18
2022-09-06T03:34:02.842Z,23.15
2022-09-06T03:35:02.825Z,23.21
2022-09-06T03:36:02.815Z,23.23
2022-09-06T03:37:02.801Z,23.23
2022-09-06T03:38:02.787Z,23.21
2022-09-06T03:39:02.770Z,23.23
2022-09-06T03:40:02.867Z,23.21
2022-09-06T03:41:02.745Z,23.21
2022-09-06T03:42:02.739Z,23.08
2022-09-06T03:43:02.724Z,23.13
2022-09-06T03:44:02.706Z,23.08
2022-09-06T03:45:02.694Z,23.11
2022-09-06T03:46:02.784Z,23.11
2022-09-06T03:47:02.665Z,23.11
2022-09-06T03:48:02.654Z,23.14
2022-09-06T03:49:02.640Z,23.22
2022-09-06T03:50:02.626Z,23.29
2022-09-06T03:51:02.615Z,23.31
2022-09-06T03:52:02.603Z,23.39
2022-09-06T03:53:02.590Z,23.22
2022-09-06T03:54:02.576Z,23.26
2022-09-06T03:55:02.564Z,23.18
2022-09-06T03:56:02.550Z,23.25
2022-09-06T03:57:02.532Z,23.18
2022-09-06T03:58:02.519Z,23.17
2022-09-06T03:59:02.503Z,23.15
2022-09-06T04:00:02.501Z,23.18
2022-09-06T04:01:02.545Z,23.29
2022-09-06T04:02:02.528Z,23.36
2022-09-06T04:03:02.452Z,23.36
2022-09-06T04:04:02.442Z,23.33
2022-09-06T04:05:02.441Z,23.33
2022-09-06T04:06:02.418Z,23.39
2022-09-06T04:07:02.408Z,23.37
2022-09-06T04:08:02.389Z,23.29
2022-09-06T04:09:02.380Z,23.34
2022-09-06T04:10:02.372Z,23.36
2022-09-06T04:11:02.351Z,23.31
2022-09-06T04:12:02.338Z,23.37
2022-09-06T04:13:02.319Z,23.37
2022-09-06T04:14:02.310Z,23.42
2022-09-06T04:15:02.297Z,23.45
2022-09-06T04:16:02.282Z,23.59
2022-09-06T04:17:02.328Z,23.60
2022-09-06T04:18:04.985Z,23.42
2022-09-06T04:19:02.246Z,23.37
2022-09-06T04:20:02.253Z,23.44
2022-09-06T04:21:02.226Z,23.31
2022-09-06T04:22:02.211Z,23.42
2022-09-06T04:23:02.191Z,23.37
2022-09-06T04:24:02.175Z,23.52
2022-09-06T04:25:02.168Z,23.46
2022-09-06T04:26:02.153Z,23.54
2022-09-06T04:27:02.144Z,23.48
2022-09-06T04:28:02.127Z,23.41
2022-09-06T04:29:02.119Z,23.18
2022-09-06T04:30:02.103Z,23.15
2022-09-06T04:31:04.542Z,23.15
2022-09-06T04:32:02.166Z,23.18
2022-09-06T04:33:02.067Z,23.26
2022-09-06T04:34:02.050Z,23.18
2022-09-06T04:35:02.044Z,23.29
2022-09-06T04:36:02.026Z,23.25
2022-09-06T04:37:02.014Z,23.28
2022-09-06T04:38:02.007Z,23.17
2022-09-06T04:39:01.979Z,23.13
2022-09-06T04:40:02.083Z,23.08
2022-09-06T04:41:01.955Z,23.11
2022-09-06T04:42:01.954Z,23.06
2022-09-06T04:43:01.940Z,23.06
2022-09-06T04:44:01.921Z,22.99
2022-09-06T04:45:01.899Z,23.04
2022-09-06T04:46:02.080Z,23.01
2022-09-06T04:47:04.316Z,23.13
2022-09-06T04:48:01.868Z,23.07
2022-09-06T04:49:01.852Z,23.14
2022-09-06T04:50:01.841Z,23.14
2022-09-06T04:51:01.825Z,23.08
2022-09-06T04:52:01.812Z,23.13
2022-09-06T04:53:01.794Z,23.10
2022-09-06T04:54:01.780Z,23.15
2022-09-06T04:55:01.772Z,23.15
2022-09-06T04:56:01.761Z,23.13
2022-09-06T04:57:01.745Z,23.15
2022-09-06T04:58:01.739Z,23.08
2022-09-06T04:59:01.717Z,22.99
2022-09-06T05:00:01.706Z,22.95
2022-09-06T05:01:01.780Z,22.93
2022-09-06T05:02:01.740Z,23.04
2022-09-06T05:03:01.669Z,22.93
2022-09-06T05:04:01.655Z,22.88
2022-09-06T05:05:01.642Z,22.83
2022-09-06T05:06:01.626Z,22.80
2022-09-06T05:07:01.612Z,22.66
2022-09-06T05:08:01.602Z,22.52
2022-09-06T05:09:01.585Z,22.55
2022-09-06T05:10:01.577Z,22.49
2022-09-06T05:11:01.560Z,22.55
2022-09-06T05:12:01.550Z,22.51
2022-09-06T05:13:01.535Z,22.59
2022-09-06T05:14:01.545Z,22.59
2022-09-06T05:15:01.504Z,22.62
2022-09-06T05:16:01.533Z,22.70
2022-09-06T05:17:01.479Z,22.62
2022-09-06T05:18:01.464Z,22.71
2022-09-06T05:19:01.447Z,22.68
2022-09-06T05:20:01.444Z,22.66
2022-09-06T05:21:01.433Z,22.68
2022-09-06T05:22:01.411Z,22.74
2022-09-06T05:23:01.396Z,22.76
2022-09-06T05:24:01.387Z,22.86
2022-09-06T05:25:01.376Z,22.77
2022-09-06T05:26:01.363Z,22.89
2022-09-06T05:27:01.343Z,22.93
2022-09-06T05:28:01.331Z,23.06
2022-09-06T05:29:01.316Z,23.03
2022-09-06T05:30:01.303Z,23.08
2022-09-06T05:31:01.288Z,23.07
2022-09-06T05:32:01.348Z,23.18
2022-09-06T05:33:01.265Z,23.11
2022-09-06T05:34:01.253Z,23.06
2022-09-06T05:35:01.237Z,23.13
2022-09-06T05:36:01.225Z,23.13
2022-09-06T05:37:01.210Z,23.10
2022-09-06T05:38:01.196Z,23.04
2022-09-06T05:39:01.183Z,23.08
2022-09-06T05:40:01.281Z,23.08
2022-09-06T05:41:01.163Z,23.13
2022-09-06T05:42:01.143Z,23.13
2022-09-06T05:43:01.136Z,23.11
2022-09-06T05:44:01.125Z,23.07
2022-09-06T05:45:01.102Z,22.83
2022-09-06T05:46:01.158Z,22.76
2022-09-06T05:47:01.075Z,22.77
2022-09-06T05:48:01.062Z,22.62
2022-09-06T05:49:01.074Z,22.58
2022-09-06T05:50:01.034Z,22.61
2022-09-06T05:51:01.021Z,22.56
2022-09-06T05:52:01.010Z,22.64
2022-09-06T05:53:00.995Z,22.73
2022-09-06T05:54:00.985Z,22.70
2022-09-06T05:55:00.970Z,22.70
2022-09-06T05:56:00.956Z,22.78
2022-09-06T05:57:00.943Z,22.77
2022-09-06T05:58:00.930Z,22.70
2022-09-06T05:59:00.915Z,22.59
2022-09-06T06:00:00.900Z,22.66
2022-09-06T06:01:00.952Z,22.64
2022-09-06T06:02:04.286Z,22.81
2022-09-06T06:03:00.857Z,22.64
2022-09-06T06:04:00.858Z,22.67
2022-09-06T06:05:00.834Z,22.74
2022-09-06T06:06:00.826Z,22.68
2022-09-06T06:07:00.807Z,22.64
2022-09-06T06:08:00.795Z,22.53
2022-09-06T06:09:00.786Z,22.49
2022-09-06T06:10:00.779Z,22.52
2022-09-06T06:11:00.749Z,22.44
2022-09-06T06:12:00.740Z,22.49
2022-09-06T06:13:00.722Z,22.46
2022-09-06T06:14:00.718Z,22.59
2022-09-06T06:15:00.698Z,22.49
2022-09-06T06:16:00.710Z,22.62
2022-09-06T06:17:00.756Z,22.56
2022-09-06T06:18:00.665Z,22.62
2022-09-06T06:19:00.650Z,22.66
2022-09-06T06:20:00.632Z,22.74
2022-09-06T06:21:00.625Z,22.76
2022-09-06T06:22:00.604Z,22.85
2022-09-06T06:23:00.590Z,22.77
2022-09-06T06:24:00.575Z,22.77
2022-09-06T06:25:00.561Z,22.86
2022-09-06T06:26:00.556Z,22.67
2022-09-06T06:27:00.538Z,22.52
2022-09-06T06:28:00.521Z,22.33
2022-09-06T06:29:00.511Z,21.98
2022-09-06T06:30:00.494Z,21.75
2022-09-06T06:31:00.482Z,21.59
2022-09-06T06:32:00.581Z,21.44
2022-09-06T06:33:00.455Z,21.30
2022-09-06T06:34:00.440Z,21.47
2022-09-06T06:35:00.425Z,21.50
2022-09-06T06:36:00.413Z,21.53
2022-09-06T06:37:00.399Z,21.56
2022-09-06T06:38:00.385Z,21.65
2022-09-06T06:39:00.375Z,21.60
2022-09-06T06:40:00.432Z,21.62
2022-09-06T06:41:04.531Z,21.67
2022-09-06T06:42:00.329Z,21.71
2022-09-06T06:43:00.322Z,21.82
2022-09-06T06:44:00.304Z,21.85
2022-09-06T06:45:00.289Z,21.96
2022-09-06T06:46:00.295Z,21.98
2022-09-06T06:47:00.266Z,22.13
2022-09-06T06:48:00.249Z,22.15
2022-09-06T06:49:00.235Z,22.21
2022-09-06T06:50:00.239Z,22.28
2022-09-06T06:51:00.210Z,22.33
2022-09-06T06:52:00.190Z,22.36
2022-09-06T06:53:00.176Z,22.52
2022-09-06T06:54:00.209Z,22.44
2022-09-06T06:55:00.153Z,22.43
2022-09-06T06:56:00.140Z,22.61
2022-09-06T06:57:00.130Z,22.64
2022-09-06T06:58:00.113Z,22.71
2022-09-06T06:59:00.103Z,22.81
2022-09-06T07:00:00.091Z,22.85
2022-09-06T07:01:00.187Z,22.83
2022-09-06T07:02:00.214Z,22.89
2022-09-06T07:03:00.082Z,22.91
2022-09-06T07:04:00.030Z,22.99
2022-09-06T07:05:00.386Z,23.03
2022-09-06T07:06:15.400Z,23.04
2022-09-06T07:07:59.972Z,23.21
2022-09-06T07:08:59.966Z,23.21
2022-09-06T07:10:59.939Z,23.33
2022-09-06T07:11:59.920Z,23.36
2022-09-06T07:12:59.912Z,23.37
2022-09-06T07:13:59.894Z,23.37
2022-09-06T07:14:59.888Z,23.39
2022-09-06T07:15:59.911Z,23.39
2022-09-06T07:16:59.854Z,23.29
2022-09-06T07:17:59.841Z,23.23
2022-09-06T07:18:59.858Z,23.34
2022-09-06T07:20:15.501Z,23.36
2022-09-06T07:22:04.315Z,23.34
2022-09-06T07:24:07.901Z,23.46
2022-09-06T07:24:59.748Z,23.59
2022-09-06T07:25:59.735Z,23.63
2022-09-06T07:28:01.600Z,23.88
2022-09-06T07:28:59.700Z,23.89
2022-09-06T07:29:59.689Z,23.94
2022-09-06T07:30:59.738Z,24.01
2022-09-06T07:32:14.939Z,23.91
2022-09-06T07:32:59.659Z,24.04
2022-09-06T07:33:59.641Z,24.11
2022-09-06T07:34:59.623Z,24.15
2022-09-06T07:35:59.620Z,24.51
2022-09-06T07:36:59.601Z,25.73
2022-09-06T07:37:59.591Z,26.58
2022-09-06T07:38:59.589Z,27.44
2022-09-06T07:39:59.635Z,28.59
2022-09-06T07:40:59.557Z,29.49
2022-09-06T07:41:59.556Z,30.39
2022-09-06T07:42:59.539Z,31.10
2022-09-06T07:43:59.534Z,31.78
2022-09-06T07:44:59.528Z,32.19
2022-09-06T07:45:59.521Z,32.75
2022-09-06T07:47:59.507Z,33.58
2022-09-06T07:48:59.510Z,31.91
2022-09-06T07:50:59.496Z,32.57
2022-09-06T07:51:59.540Z,32.32
2022-09-06T07:54:13.271Z,32.92
2022-09-06T07:54:59.495Z,33.10
2022-09-06T07:55:59.484Z,33.01
2022-09-06T07:56:59.491Z,33.47
2022-09-06T07:57:59.502Z,33.70
2022-09-06T07:58:59.485Z,33.71
2022-09-06T07:59:59.483Z,34.01
2022-09-06T08:00:59.536Z,34.26
2022-09-06T08:01:59.577Z,34.41
2022-09-06T08:02:59.498Z,34.78
2022-09-06T08:03:59.492Z,35.34
2022-09-06T08:04:59.641Z,35.56
2022-09-06T08:06:14.999Z,35.98
2022-09-06T08:08:59.847Z,36.33
2022-09-06T08:09:59.507Z,36.51
2022-09-06T08:10:59.511Z,36.49
2022-09-06T08:11:59.508Z,36.81
2022-09-06T08:12:59.522Z,36.97
2022-09-06T08:13:59.519Z,36.61
2022-09-06T08:14:59.524Z,36.64
2022-09-06T08:15:59.552Z,36.82
2022-09-06T08:16:59.533Z,37.17
2022-09-06T08:17:59.537Z,36.36
2022-09-06T08:18:59.542Z,36.96
2022-09-06T08:19:59.545Z,36.14
2022-09-06T08:20:59.549Z,35.66
2022-09-06T08:21:59.553Z,36.44
2022-09-06T08:22:59.559Z,36.79
2022-09-06T08:23:59.561Z,37.23
2022-09-06T08:24:59.575Z,37.79
2022-09-06T08:25:59.574Z,37.83
2022-09-06T08:26:59.608Z,37.79
2022-09-06T08:27:59.589Z,37.95
2022-09-06T08:28:59.598Z,37.69
2022-09-06T08:29:59.603Z,38.30
2022-09-06T08:30:59.601Z,38.67
2022-09-06T08:31:59.679Z,39.14
2022-09-06T08:32:59.616Z,39.20
2022-09-06T08:33:59.622Z,38.84
2022-09-06T08:34:59.627Z,39.28
2022-09-06T08:35:59.632Z,39.38
2022-09-06T08:36:59.637Z,39.33
2022-09-06T08:37:59.646Z,38.48
2022-09-06T08:38:59.651Z,39.14
2022-09-06T08:39:59.704Z,39.26
2022-09-06T08:40:59.668Z,39.39
2022-09-06T08:41:59.669Z,38.98
2022-09-06T08:42:59.678Z,39.11
2022-09-06T08:44:59.691Z,39.98
2022-09-06T08:45:59.696Z,40.38
2022-09-06T08:46:59.812Z,39.74
2022-09-06T08:47:59.707Z,40.45
2022-09-06T08:48:59.714Z,40.18
2022-09-06T08:49:59.719Z,40.17
2022-09-06T08:50:59.726Z,39.99
2022-09-06T08:51:59.731Z,39.46
2022-09-06T08:53:16.904Z,39.86
2022-09-06T08:53:59.747Z,39.82
2022-09-06T08:54:59.747Z,40.38
2022-09-06T08:55:59.761Z,40.70
2022-09-06T08:56:59.764Z,40.50
2022-09-06T08:57:59.767Z,40.48
2022-09-06T08:58:59.780Z,40.92
2022-09-06T08:59:59.780Z,41.25
2022-09-06T09:00:59.815Z,41.65
2022-09-06T09:01:59.818Z,41.87
2022-09-06T09:02:59.802Z,41.55
2022-09-06T09:03:59.802Z,41.38
2022-09-06T09:04:59.809Z,40.63
2022-09-06T09:05:59.811Z,40.20
2022-09-06T09:06:59.823Z,40.43
2022-09-06T09:07:59.820Z,40.83
2022-09-06T09:08:59.825Z,38.06
2022-09-06T09:09:59.835Z,37.08
2022-09-06T09:10:59.851Z,36.97
2022-09-06T09:11:59.832Z,37.70
2022-09-06T09:12:59.847Z,38.47
2022-09-06T09:13:59.846Z,38.92
2022-09-06T09:14:59.855Z,40.01
2022-09-06T09:15:59.902Z,40.83
2022-09-06T09:16:59.858Z,40.55
2022-09-06T09:17:59.882Z,40.40
2022-09-06T09:18:59.875Z,40.74
2022-09-06T09:19:59.864Z,40.96
2022-09-06T09:20:59.871Z,40.82
2022-09-06T09:21:59.870Z,41.27
2022-09-06T09:22:59.879Z,41.66
2022-09-06T09:23:59.881Z,41.69
2022-09-06T09:24:59.878Z,41.77
2022-09-06T09:25:59.881Z,42.03
2022-09-06T09:26:59.898Z,42.07
2022-09-06T09:27:59.887Z,42.44
2022-09-06T09:28:59.893Z,42.87
2022-09-06T09:30:59.952Z,43.22
2022-09-06T09:31:59.990Z,43.54
2022-09-06T09:32:59.904Z,43.37
2022-09-06T09:33:59.900Z,43.59
2022-09-06T09:34:59.905Z,43.62
2022-09-06T09:35:59.904Z,43.71
2022-09-06T09:38:05.940Z,43.32
2022-09-06T09:38:59.913Z,43.51
2022-09-06T09:39:59.966Z,42.84
2022-09-06T09:40:59.910Z,42.23
2022-09-06T09:41:59.913Z,42.21
2022-09-06T09:42:59.911Z,42.49
2022-09-06T09:44:04.182Z,42.81
2022-09-06T09:44:59.914Z,43.06
2022-09-06T09:45:59.913Z,43.36
2022-09-06T09:47:00.019Z,43.57
2022-09-06T09:47:59.912Z,43.83
2022-09-06T09:48:59.914Z,43.59
2022-09-06T09:49:59.917Z,43.47
2022-09-06T09:50:59.921Z,42.79
2022-09-06T09:51:59.914Z,41.65
2022-09-06T09:52:59.940Z,41.27
2022-09-06T09:53:59.917Z,40.35
2022-09-06T09:54:59.913Z,39.39
2022-09-06T09:55:59.916Z,38.42
2022-09-06T09:56:59.921Z,37.82
2022-09-06T09:57:59.912Z,37.38
2022-09-06T09:58:59.909Z,37.00
2022-09-06T09:59:59.910Z,36.64
2022-09-06T10:00:59.958Z,36.51
2022-09-06T10:01:59.911Z,36.25
2022-09-06T10:02:59.945Z,36.03
2022-09-06T10:04:59.905Z,35.94
2022-09-06T10:06:02.603Z,35.69
2022-09-06T10:07:59.893Z,35.41
2022-09-06T10:08:59.891Z,35.29
2022-09-06T10:09:59.894Z,35.07
2022-09-06T10:10:59.897Z,34.87
2022-09-06T10:11:59.886Z,34.85
2022-09-06T10:12:59.886Z,34.92
2022-09-06T10:13:59.886Z,34.82
2022-09-06T10:15:03.575Z,34.79
2022-09-06T10:15:59.954Z,34.52
2022-09-06T10:16:59.864Z,34.29
2022-09-06T10:17:59.869Z,34.15
2022-09-06T10:18:59.852Z,33.92
2022-09-06T10:19:59.847Z,33.78
2022-09-06T10:20:59.843Z,33.74
2022-09-06T10:21:59.844Z,33.86
2022-09-06T10:22:59.842Z,33.97
2022-09-06T10:24:59.827Z,34.11
2022-09-06T10:25:59.844Z,34.18
2022-09-06T10:26:59.821Z,34.20
2022-09-06T10:28:10.991Z,34.20
2022-09-06T10:28:59.813Z,34.34
2022-09-06T10:29:59.802Z,34.37
2022-09-06T10:30:59.857Z,34.52
2022-09-06T10:31:59.795Z,34.53
2022-09-06T10:32:59.791Z,34.67
2022-09-06T10:33:59.788Z,34.55
2022-09-06T10:34:59.782Z,34.37
2022-09-06T10:35:59.788Z,34.30
2022-09-06T10:36:59.779Z,34.40
2022-09-06T10:37:59.770Z,34.48
2022-09-06T10:39:03.679Z,34.45
2022-09-06T10:39:59.811Z,34.23
2022-09-06T10:40:59.757Z,34.15
2022-09-06T10:41:59.756Z,34.23
2022-09-06T10:42:59.744Z,34.34
2022-09-06T10:43:59.741Z,34.40
2022-09-06T10:44:59.739Z,34.55
2022-09-06T10:45:59.731Z,34.72
2022-09-06T10:46:59.726Z,34.94
2022-09-06T10:47:59.721Z,35.13
2022-09-06T10:48:59.724Z,35.41
2022-09-06T10:49:59.714Z,35.34
2022-09-06T10:50:59.706Z,35.41
2022-09-06T10:51:59.702Z,35.50
2022-09-06T10:52:59.704Z,35.57
2022-09-06T10:53:59.693Z,35.63
2022-09-06T10:54:59.687Z,35.57
2022-09-06T10:56:01.452Z,35.63
2022-09-06T10:56:59.680Z,35.73
2022-09-06T10:59:59.668Z,35.79
2022-09-06T11:00:59.672Z,35.92
2022-09-06T11:01:59.828Z,36.04
2022-09-06T11:04:04.175Z,35.91
2022-09-06T11:05:59.638Z,35.94
2022-09-06T11:06:59.631Z,35.69
2022-09-06T11:08:59.810Z,35.83
2022-09-06T11:09:59.617Z,35.91
2022-09-06T11:10:59.613Z,35.83
2022-09-06T11:11:59.608Z,35.98
2022-09-06T11:12:59.612Z,36.00
2022-09-06T11:14:02.532Z,36.00
2022-09-06T11:14:59.596Z,36.06
2022-09-06T11:15:59.647Z,35.98
2022-09-06T11:16:59.586Z,35.91
2022-09-06T11:17:59.581Z,35.88
2022-09-06T11:18:59.578Z,35.73
2022-09-06T11:19:59.571Z,35.56
2022-09-06T11:20:59.570Z,35.41
2022-09-06T11:21:59.564Z,35.12
2022-09-06T11:22:59.563Z,34.85
2022-09-06T11:23:59.625Z,34.72
2022-09-06T11:24:59.547Z,34.78
2022-09-06T11:25:59.544Z,34.94
2022-09-06T11:26:59.536Z,35.01
2022-09-06T11:27:59.532Z,35.07
2022-09-06T11:28:59.527Z,35.16
2022-09-06T11:29:59.518Z,35.31
2022-09-06T11:30:59.523Z,35.20
2022-09-06T11:32:59.508Z,35.17
2022-09-06T11:34:01.274Z,35.13
2022-09-06T11:34:59.496Z,35.26
2022-09-06T11:35:59.490Z,35.17
2022-09-06T11:36:59.501Z,35.19
2022-09-06T11:37:59.480Z,35.31
2022-09-06T11:38:59.480Z,35.35
2022-09-06T11:40:59.467Z,35.54
2022-09-06T11:41:59.464Z,35.39
2022-09-06T11:42:59.615Z,35.41
2022-09-06T11:43:59.456Z,35.36
2022-09-06T11:44:59.447Z,35.35
2022-09-06T11:45:59.473Z,35.46
2022-09-06T11:46:59.441Z,35.39
2022-09-06T11:47:59.435Z,35.39
2022-09-06T11:48:59.437Z,35.41
2022-09-06T11:49:59.432Z,34.90
2022-09-06T11:50:59.435Z,34.57
2022-09-06T11:51:59.410Z,34.52
2022-09-06T11:52:59.425Z,34.56
2022-09-06T11:53:59.403Z,34.56
2022-09-06T11:54:59.395Z,34.70
2022-09-06T11:55:59.392Z,34.82
2022-09-06T11:56:59.391Z,35.04
2022-09-06T11:57:59.383Z,35.19
2022-09-06T11:58:59.377Z,35.32
2022-09-06T11:59:59.371Z,35.32
2022-09-06T12:00:59.368Z,35.38
2022-09-06T12:01:59.370Z,35.48
2022-09-06T12:05:00.409Z,35.56
2022-09-06T12:05:59.345Z,35.53
2022-09-06T12:06:59.338Z,35.50
2022-09-06T12:07:59.332Z,35.51
2022-09-06T12:08:59.328Z,35.56
2022-09-06T12:09:59.323Z,35.63
2022-09-06T12:10:59.315Z,35.68
2022-09-06T12:11:59.320Z,35.77
2022-09-06T12:12:59.314Z,35.84
2022-09-06T12:13:59.303Z,35.57
2022-09-06T12:14:59.300Z,35.51
2022-09-06T12:15:59.370Z,35.56
2022-09-06T12:16:59.291Z,35.51
2022-09-06T12:17:59.288Z,35.53
2022-09-06T12:18:59.277Z,35.61
2022-09-06T12:19:59.272Z,35.63
2022-09-06T12:20:59.270Z,35.72
2022-09-06T12:21:59.263Z,35.79
2022-09-06T12:22:59.256Z,35.83
2022-09-06T12:23:59.273Z,35.58
2022-09-06T12:24:59.247Z,35.54
2022-09-06T12:25:59.246Z,35.46
2022-09-06T12:26:59.241Z,35.38
2022-09-06T12:27:59.239Z,35.36
2022-09-06T12:28:59.233Z,35.29
2022-09-06T12:29:59.232Z,35.36
2022-09-06T12:30:59.286Z,35.44
2022-09-06T12:31:59.215Z,35.54
2022-09-06T12:32:59.211Z,35.50
2022-09-06T12:33:59.218Z,35.60
2022-09-06T12:35:59.853Z,35.39
2022-09-06T12:36:59.195Z,35.24
2022-09-06T12:37:59.183Z,35.12
2022-09-06T12:38:59.194Z,34.91
2022-09-06T12:39:59.217Z,34.76
2022-09-06T12:40:59.249Z,34.75
2022-09-06T12:41:59.162Z,34.80
2022-09-06T12:42:59.159Z,35.01
2022-09-06T12:43:59.163Z,35.12
2022-09-06T12:44:59.156Z,35.17
2022-09-06T12:45:59.179Z,35.32
2022-09-06T12:46:59.142Z,35.39
2022-09-06T12:47:59.138Z,35.48
2022-09-06T12:48:59.131Z,35.56
2022-09-06T12:49:59.119Z,35.69
2022-09-06T12:50:59.122Z,35.70
2022-09-06T12:51:59.113Z,35.83
2022-09-06T12:52:59.112Z,35.87
2022-09-06T12:53:59.110Z,35.92
2022-09-06T12:54:59.101Z,35.97
2022-09-06T12:55:59.093Z,35.92
2022-09-06T12:56:59.090Z,35.87
2022-09-06T12:57:59.084Z,35.76
2022-09-06T12:58:59.077Z,35.77
2022-09-06T12:59:59.077Z,35.83
2022-09-06T13:00:59.068Z,35.69
2022-09-06T13:01:59.175Z,35.63
2022-09-06T13:02:59.248Z,35.57
2022-09-06T13:03:59.051Z,35.53
2022-09-06T13:04:59.051Z,35.65
2022-09-06T13:05:59.041Z,35.84
2022-09-06T13:06:59.042Z,36.04
2022-09-06T13:07:59.035Z,35.98
2022-09-06T13:08:59.031Z,36.13
2022-09-06T13:09:59.027Z,36.23
2022-09-06T13:10:59.017Z,36.23
2022-09-06T13:11:59.018Z,36.33
2022-09-06T13:12:59.013Z,36.35
2022-09-06T13:13:59.003Z,36.33
2022-09-06T13:14:59.002Z,36.42
2022-09-06T13:15:59.045Z,36.40
2022-09-06T13:16:58.991Z,36.47
2022-09-06T13:17:58.983Z,36.48